Time;durP1;ratioP1;P1;durP2;ratioP2;P2;SDS_P1;SDS_P2;PMS_P1;PMS_P2;Temp;Humidity;BMP_temperature;BMP_pressure;BME280_temperature;BME280_humidity;BME280_pressure;Samples;Min_cycle;Max_cycle;Signal;HPM_P1;HPM_P2
2023/05/20 00:01:41;;;;;;;;;;;;;;;13.70;37.46;101535.72;4944688;27;101771;-65
2023/05/20 00:04:07;;;;;;;;;;;;;;;13.69;37.86;101531.41;4934385;27;99614;-64
2023/05/20 00:06:33;;;;;;;;;;;;;;;13.68;37.65;101525.16;4945121;27;120935;-64
2023/05/20 00:09:00;;;;;;;;;;;;;;;13.68;37.98;101527.06;4959413;27;98393;-64
2023/05/20 00:11:26;;;;;;;;;;;;;;;13.65;37.89;101530.28;4941964;27;98375;-68
2023/05/20 00:13:52;;;;;;;;;;;;;;;13.64;37.96;101524.06;4963952;27;98180;-65
2023/05/20 00:16:18;;;;;;;;;;;;;;;13.62;37.87;101525.38;4966685;27;125067;-67
2023/05/20 00:18:44;;;;;;;;;;;;;;;13.61;38.06;101523.75;4949888;27;98109;-64
2023/05/20 00:21:10;;;;;;;;;;;;;;;13.59;37.78;101517.78;4964551;27;99182;-64
2023/05/20 00:23:37;;;;;;;;;;;;;;;13.58;37.66;101525.09;4929918;27;99471;-64
2023/05/20 00:26:03;;;;;;;;;;;;;;;13.56;37.86;101521.84;4950705;27;98740;-67
2023/05/20 00:28:29;;;;;;;;;;;;;;;13.55;37.85;101517.47;4962416;27;97967;-64
2023/05/20 00:30:55;;;;;;;;;;;;;;;13.53;37.99;101522.34;4942555;28;99932;-67
2023/05/20 00:33:21;;;;;;;;;;;;;;;13.53;37.90;101518.84;4946008;27;99923;-67
2023/05/20 00:35:47;;;;;;;;;;;;;;;13.51;37.62;101517.19;4931997;27;121445;-67
2023/05/20 00:38:13;;;;;;;;;;;;;;;13.51;37.84;101524.50;4948865;28;98307;-67
2023/05/20 00:40:39;;;;;;;;;;;;;;;13.50;37.96;101512.03;4930731;27;98147;-64
2023/05/20 00:43:06;;;;;;;;;;;;;;;13.50;37.77;101514.75;4964380;27;99425;-67
2023/05/20 00:45:32;;;;;;;;;;;;;;;13.49;38.06;101511.22;4959300;27;98180;-67
2023/05/20 00:48:00;;;;;;;;;;;;;;;13.49;37.83;101510.41;4941944;27;97919;-64
2023/05/20 00:50:26;;;;;;;;;;;;;;;13.48;38.44;101517.72;4963874;27;98069;-64
2023/05/20 00:52:54;;;;;;;;;;;;;;;13.47;37.98;101510.66;4950022;27;99031;-64
2023/05/20 00:55:20;;;;;;;;;;;;;;;13.49;37.93;101513.13;4960331;27;98428;-65
2023/05/20 00:57:49;;;;;;;;;;;;;;;13.49;37.75;101508.53;4951508;27;98259;-67
2023/05/20 01:00:15;;;;;;;;;;;;;;;13.49;38.12;101500.41;4965260;28;99462;-67
2023/05/20 01:02:42;;;;;;;;;;;;;;;13.51;37.87;101506.34;4947600;27;98104;-67
2023/05/20 01:05:08;;;;;;;;;;;;;;;13.51;37.88;101500.13;4950787;27;99321;-67
2023/05/20 01:07:34;;;;;;;;;;;;;;;13.52;37.92;101499.06;4949638;27;98110;-67
2023/05/20 01:10:00;;;;;;;;;;;;;;;13.54;38.11;101498.78;4964782;27;98286;-64
2023/05/20 01:12:30;;;;;;;;;;;;;;;13.55;37.76;101498.53;4946783;27;99693;-67
2023/05/20 01:15:00;;;;;;;;;;;;;;;13.55;38.12;101493.09;4953612;27;98431;-67
2023/05/20 01:17:28;;;;;;;;;;;;;;;13.57;37.83;101498.28;4958445;27;98086;-64
2023/05/20 01:19:55;;;;;;;;;;;;;;;13.58;38.18;101495.28;4975733;27;98284;-67
2023/05/20 01:22:28;;;;;;;;;;;;;;;13.59;38.06;101498.81;4952331;27;98153;-67
2023/05/20 01:24:54;;;;;;;;;;;;;;;13.59;37.84;101496.91;4946928;27;98068;-67
2023/05/20 01:27:21;;;;;;;;;;;;;;;13.61;37.97;101499.38;4949722;28;98252;-64
2023/05/20 01:29:49;;;;;;;;;;;;;;;13.60;38.32;101486.94;4945248;27;98500;-64
2023/05/20 01:32:21;;;;;;;;;;;;;;;13.59;38.22;101499.63;4952045;27;98253;-64
2023/05/20 01:34:49;;;;;;;;;;;;;;;13.58;37.94;101497.19;4952226;27;98106;-68
2023/05/20 01:37:15;;;;;;;;;;;;;;;13.58;37.87;101492.59;4964482;28;98482;-63
2023/05/20 01:39:42;;;;;;;;;;;;;;;13.60;38.38;101500.47;4951566;27;98156;-64
2023/05/20 01:42:09;;;;;;;;;;;;;;;13.60;38.17;101500.47;4950184;27;98452;-67
2023/05/20 01:44:35;;;;;;;;;;;;;;;13.62;38.00;101492.88;4948781;27;99544;-64
2023/05/20 01:47:01;;;;;;;;;;;;;;;13.61;38.08;101497.50;4944013;28;102075;-64
2023/05/20 01:49:27;;;;;;;;;;;;;;;13.64;38.04;101496.16;4947539;27;98175;-67
2023/05/20 01:51:53;;;;;;;;;;;;;;;13.64;38.15;101498.88;4949260;27;98041;-67
2023/05/20 01:54:19;;;;;;;;;;;;;;;13.64;38.11;101496.97;4947813;28;98277;-67
2023/05/20 01:56:45;;;;;;;;;;;;;;;13.64;37.96;101482.59;4928586;27;98418;-66
2023/05/20 01:59:12;;;;;;;;;;;;;;;13.64;38.07;101498.88;4948532;28;98092;-66
2023/05/20 02:01:38;;;;;;;;;;;;;;;13.64;37.92;101496.16;4976319;27;98143;-63
2023/05/20 02:04:04;;;;;;;;;;;;;;;13.63;38.15;101502.63;4950797;27;99369;-64
2023/05/20 02:06:30;;;;;;;;;;;;;;;13.63;37.97;101506.16;4943458;27;98205;-67
2023/05/20 02:08:56;;;;;;;;;;;;;;;13.63;38.23;101495.31;4949911;27;111091;-64
2023/05/20 02:11:22;;;;;;;;;;;;;;;13.62;38.32;101501.00;4948750;27;98119;-67
2023/05/20 02:13:50;;;;;;;;;;;;;;;13.62;38.28;101506.44;4945157;27;99062;-63
2023/05/20 02:16:18;;;;;;;;;;;;;;;13.62;38.38;101498.28;4949065;27;98061;-64
2023/05/20 02:18:44;;;;;;;;;;;;;;;13.62;38.23;101496.41;4963837;27;98439;-64
2023/05/20 02:21:10;;;;;;;;;;;;;;;13.63;38.07;101495.31;4930565;27;98263;-67
2023/05/20 02:23:36;;;;;;;;;;;;;;;13.62;38.03;101499.09;4946524;27;97930;-64
2023/05/20 02:26:03;;;;;;;;;;;;;;;13.63;37.99;101505.34;4964682;27;98262;-67
2023/05/20 02:28:29;;;;;;;;;;;;;;;13.63;38.29;101508.06;4947511;28;98508;-64
2023/05/20 02:30:55;;;;;;;;;;;;;;;13.63;38.37;101499.91;4949993;28;98076;-67
2023/05/20 02:33:21;;;;;;;;;;;;;;;13.62;38.07;101498.28;4964692;28;98357;-67
2023/05/20 02:35:47;;;;;;;;;;;;;;;13.60;38.14;101498.56;4943053;28;98215;-67
2023/05/20 02:38:13;;;;;;;;;;;;;;;13.59;38.23;101501.53;4949815;27;98079;-65
2023/05/20 02:40:42;;;;;;;;;;;;;;;13.58;38.33;101497.19;4949822;27;98201;-64
2023/05/20 02:43:08;;;;;;;;;;;;;;;13.57;38.19;101490.16;4942082;27;98388;-64
2023/05/20 02:45:34;;;;;;;;;;;;;;;13.57;38.35;101492.88;4934038;27;98148;-65
2023/05/20 02:48:00;;;;;;;;;;;;;;;13.55;38.03;101490.41;4934808;27;97985;-67
2023/05/20 02:50:27;;;;;;;;;;;;;;;13.56;38.07;101499.34;4945691;27;97962;-67
2023/05/20 02:52:53;;;;;;;;;;;;;;;13.54;38.58;101490.66;4947091;27;98546;-64
2023/05/20 02:55:20;;;;;;;;;;;;;;;13.51;38.29;101498.22;4942582;27;99220;-64
2023/05/20 02:57:46;;;;;;;;;;;;;;;13.52;38.12;101496.38;4942628;27;100275;-67
2023/05/20 03:00:12;;;;;;;;;;;;;;;13.52;38.44;101496.38;4947546;27;98143;-68
2023/05/20 03:02:38;;;;;;;;;;;;;;;13.53;38.56;101491.75;4944729;27;98041;-64
2023/05/20 03:05:04;;;;;;;;;;;;;;;13.54;38.34;101501.50;4947662;27;99430;-64
2023/05/20 03:07:33;;;;;;;;;;;;;;;13.54;38.32;101505.03;4942090;27;106398;-67
2023/05/20 03:10:01;;;;;;;;;;;;;;;13.55;38.12;101506.66;4963292;27;98461;-67
2023/05/20 03:12:28;;;;;;;;;;;;;;;13.56;38.18;101504.75;4962025;27;98230;-64
2023/05/20 03:14:54;;;;;;;;;;;;;;;13.58;38.39;101506.13;4946554;27;98257;-64
2023/05/20 03:17:21;;;;;;;;;;;;;;;13.59;38.51;101504.22;4960805;27;97972;-64
2023/05/20 03:19:47;;;;;;;;;;;;;;;13.59;38.22;101504.22;4942008;27;98019;-68
2023/05/20 03:22:13;;;;;;;;;;;;;;;13.61;38.32;101504.81;4947603;27;99841;-63
2023/05/20 03:24:39;;;;;;;;;;;;;;;13.62;38.14;101501.00;4962832;27;108638;-63
2023/05/20 03:27:05;;;;;;;;;;;;;;;13.62;38.21;101495.59;4961853;28;99077;-67
2023/05/20 03:29:32;;;;;;;;;;;;;;;13.64;38.58;101509.69;4964588;27;98267;-66
2023/05/20 03:31:59;;;;;;;;;;;;;;;13.63;38.51;101499.91;4964407;27;98009;-63
2023/05/20 03:34:27;;;;;;;;;;;;;;;13.65;38.29;101503.19;4930469;27;98276;-67
2023/05/20 03:36:53;;;;;;;;;;;;;;;13.64;38.45;101496.97;4948443;28;99871;-64
2023/05/20 03:39:19;;;;;;;;;;;;;;;13.63;38.34;101495.31;4948052;27;100053;-67
2023/05/20 03:41:45;;;;;;;;;;;;;;;13.63;38.29;101495.31;4949437;27;99091;-64
2023/05/20 03:44:11;;;;;;;;;;;;;;;13.63;38.31;101489.09;4961081;27;110796;-67
2023/05/20 03:46:37;;;;;;;;;;;;;;;13.65;38.17;101481.53;4944662;27;100054;-67
2023/05/20 03:49:04;;;;;;;;;;;;;;;13.67;38.53;101472.03;4945519;28;109638;-67
2023/05/20 03:51:30;;;;;;;;;;;;;;;13.69;38.45;101469.88;4960002;27;98578;-64
2023/05/20 03:53:57;;;;;;;;;;;;;;;13.71;38.30;101478.56;4943174;27;98139;-67
2023/05/20 03:56:23;;;;;;;;;;;;;;;13.73;38.52;101481.84;4942390;27;97999;-64
2023/05/20 03:58:50;;;;;;;;;;;;;;;13.73;38.09;101478.31;4959668;27;98108;-63
2023/05/20 04:01:16;;;;;;;;;;;;;;;13.74;38.45;101472.63;4944871;27;98075;-67
2023/05/20 04:03:42;;;;;;;;;;;;;;;13.79;38.21;101479.94;4930563;27;98279;-64
2023/05/20 04:06:09;;;;;;;;;;;;;;;13.81;38.21;101475.09;4946753;27;99683;-64
2023/05/20 04:08:35;;;;;;;;;;;;;;;13.84;38.56;101471.88;4943837;27;97848;-63
2023/05/20 04:11:01;;;;;;;;;;;;;;;13.86;38.14;101475.09;4945310;27;98038;-67
2023/05/20 04:13:27;;;;;;;;;;;;;;;13.91;38.47;101483.28;4943779;28;98123;-67
2023/05/20 04:15:54;;;;;;;;;;;;;;;13.94;38.32;101477.31;4925154;28;121752;-64
2023/05/20 04:18:20;;;;;;;;;;;;;;;13.97;38.55;101471.34;4929512;28;98252;-64
2023/05/20 04:20:46;;;;;;;;;;;;;;;13.98;38.07;101470.28;4917761;28;98865;-63
2023/05/20 04:23:12;;;;;;;;;;;;;;;14.00;38.16;101476.25;4944541;28;99999;-67
2023/05/20 04:25:40;;;;;;;;;;;;;;;14.00;38.20;101472.72;4930871;28;98087;-63
2023/05/20 04:28:06;;;;;;;;;;;;;;;14.02;38.20;101475.16;4942625;28;98227;-64
2023/05/20 04:30:32;;;;;;;;;;;;;;;14.00;38.44;101481.69;4927297;28;99572;-67
2023/05/20 04:33:02;;;;;;;;;;;;;;;13.99;38.22;101468.41;4915237;28;98089;-63
2023/05/20 04:35:28;;;;;;;;;;;;;;;14.01;38.51;101474.34;4928669;28;100062;-63
2023/05/20 04:37:54;;;;;;;;;;;;;;;14.01;38.20;101471.66;4929828;28;98299;-64
2023/05/20 04:40:21;;;;;;;;;;;;;;;14.04;38.62;101475.72;4928588;28;99587;-64
2023/05/20 04:42:47;;;;;;;;;;;;;;;14.06;38.48;101477.06;4948601;28;98330;-67
2023/05/20 04:45:13;;;;;;;;;;;;;;;14.05;38.40;101475.44;4924618;28;98281;-63
2023/05/20 04:47:40;;;;;;;;;;;;;;;14.05;38.62;101478.16;4924918;28;98382;-67
2023/05/20 04:50:12;;;;;;;;;;;;;;;14.08;38.53;101465.97;4919619;28;98397;-67
2023/05/20 04:52:38;;;;;;;;;;;;;;;14.11;38.39;101471.69;4942440;28;98280;-64
2023/05/20 04:55:05;;;;;;;;;;;;;;;14.18;38.39;101464.09;4924310;28;101837;-67
2023/05/20 04:57:33;;;;;;;;;;;;;;;14.25;38.08;101469.28;4925471;28;98211;-63
2023/05/20 04:59:59;;;;;;;;;;;;;;;14.28;38.30;101463.31;4941043;28;98481;-67
2023/05/20 05:02:25;;;;;;;;;;;;;;;14.25;38.31;101464.66;4928392;28;98584;-64
2023/05/20 05:04:51;;;;;;;;;;;;;;;14.26;38.43;101468.19;4930187;28;98135;-67
2023/05/20 05:07:17;;;;;;;;;;;;;;;14.27;38.52;101467.13;4941507;28;128153;-64
2023/05/20 05:09:43;;;;;;;;;;;;;;;14.25;38.47;101470.09;4920522;28;98148;-67
2023/05/20 05:12:09;;;;;;;;;;;;;;;14.25;38.43;101480.94;4943080;28;98091;-67
2023/05/20 05:14:35;;;;;;;;;;;;;;;14.24;38.22;101483.91;4929923;27;119504;-64
2023/05/20 05:17:01;;;;;;;;;;;;;;;14.23;38.62;101485.00;4946066;27;98693;-64
2023/05/20 05:19:27;;;;;;;;;;;;;;;14.21;38.28;101476.31;4962663;27;98230;-67
2023/05/20 05:21:53;;;;;;;;;;;;;;;14.25;38.26;101471.97;4943131;28;98315;-67
2023/05/20 05:24:19;;;;;;;;;;;;;;;14.28;38.21;101470.66;4942127;27;119677;-64
2023/05/20 05:26:45;;;;;;;;;;;;;;;14.30;38.43;101468.47;4958752;27;99903;-63
2023/05/20 05:29:11;;;;;;;;;;;;;;;14.30;38.47;101472.00;4937417;27;101044;-63
2023/05/20 05:31:37;;;;;;;;;;;;;;;14.35;38.55;101479.34;4959087;27;114533;-67
2023/05/20 05:34:04;;;;;;;;;;;;;;;14.35;38.47;101477.44;4940791;27;98278;-63
2023/05/20 05:36:32;;;;;;;;;;;;;;;14.39;38.60;101472.31;4940672;27;98121;-68
2023/05/20 05:38:58;;;;;;;;;;;;;;;14.42;38.57;101474.44;4943697;27;99976;-63
2023/05/20 05:41:24;;;;;;;;;;;;;;;14.51;38.38;101481.03;4946136;27;98259;-67
2023/05/20 05:43:51;;;;;;;;;;;;;;;14.52;38.62;101488.06;4938940;27;99438;-64
2023/05/20 05:46:17;;;;;;;;;;;;;;;14.52;38.42;101493.50;4926594;27;98158;-67
2023/05/20 05:48:47;;;;;;;;;;;;;;;14.58;38.43;101492.44;4940058;27;99108;-64
2023/05/20 05:51:14;;;;;;;;;;;;;;;14.65;38.19;101492.16;4960384;27;98313;-64
2023/05/20 05:53:40;;;;;;;;;;;;;;;14.68;38.59;101497.06;4943012;27;100148;-64
2023/05/20 05:56:06;;;;;;;;;;;;;;;14.73;38.49;101486.19;4976528;27;98371;-63
2023/05/20 05:58:32;;;;;;;;;;;;;;;14.80;38.07;101489.47;4942932;27;98109;-67
2023/05/20 06:00:58;;;;;;;;;;;;;;;14.86;38.38;101480.25;4956400;27;100819;-67
2023/05/20 06:03:24;;;;;;;;;;;;;;;14.82;38.60;101476.44;4942073;27;127298;-67
2023/05/20 06:05:51;;;;;;;;;;;;;;;14.83;38.56;101469.13;4939811;27;98112;-64
2023/05/20 06:08:17;;;;;;;;;;;;;;;14.86;38.20;101468.56;4925347;27;115244;-63
2023/05/20 06:10:49;;;;;;;;;;;;;;;14.92;38.13;101472.91;4931263;27;98297;-63
2023/05/20 06:13:16;;;;;;;;;;;;;;;14.98;38.06;101469.13;4943635;27;98169;-67
2023/05/20 06:15:42;;;;;;;;;;;;;;;15.04;38.47;101469.91;4939981;27;100157;-67
2023/05/20 06:18:08;;;;;;;;;;;;;;;15.03;38.36;101466.38;4940478;27;98506;-63
2023/05/20 06:20:34;;;;;;;;;;;;;;;15.04;38.36;101470.72;4939600;28;113353;-64
2023/05/20 06:23:00;;;;;;;;;;;;;;;15.17;38.39;101472.91;4942697;27;98359;-67
2023/05/20 06:25:27;;;;;;;;;;;;;;;15.24;37.97;101469.88;4940873;27;130391;-67
2023/05/20 06:27:53;;;;;;;;;;;;;;;15.23;38.33;101462.81;4923243;27;99060;-63
2023/05/20 06:30:20;;;;;;;;;;;;;;;15.19;38.37;101462.56;4958153;27;98580;-63
2023/05/20 06:32:46;;;;;;;;;;;;;;;15.21;38.06;101467.72;4942538;27;98412;-63
2023/05/20 06:35:12;;;;;;;;;;;;;;;15.19;38.22;101459.03;4939497;28;98328;-63
2023/05/20 06:37:38;;;;;;;;;;;;;;;15.30;38.21;101444.34;4940925;27;106248;-63
2023/05/20 06:40:05;;;;;;;;;;;;;;;15.38;37.97;101451.94;4956383;27;98419;-67
2023/05/20 06:42:31;;;;;;;;;;;;;;;15.42;38.09;101457.63;4944193;27;98245;-67
2023/05/20 06:44:57;;;;;;;;;;;;;;;15.45;38.04;101454.38;4943983;27;98221;-67
2023/05/20 06:47:23;;;;;;;;;;;;;;;15.49;37.92;101455.44;4942118;27;98256;-63
2023/05/20 06:49:49;;;;;;;;;;;;;;;15.49;37.99;101446.47;4945647;27;98473;-63
2023/05/20 06:52:15;;;;;;;;;;;;;;;15.50;37.84;101448.09;4939542;27;98358;-64
2023/05/20 06:54:42;;;;;;;;;;;;;;;15.54;38.01;101447.28;4943569;27;98839;-63
2023/05/20 06:57:08;;;;;;;;;;;;;;;15.53;38.29;101442.94;4942737;27;99276;-64
2023/05/20 06:59:35;;;;;;;;;;;;;;;15.51;38.29;101447.00;4930105;27;99789;-64
2023/05/20 07:02:01;;;;;;;;;;;;;;;15.53;38.35;101447.56;4930797;27;97970;-67
2023/05/20 07:04:28;;;;;;;;;;;;;;;15.51;38.18;101444.28;4977283;27;97932;-64
2023/05/20 07:06:54;;;;;;;;;;;;;;;15.43;38.40;101449.19;4938663;27;101848;-64
2023/05/20 07:09:20;;;;;;;;;;;;;;;15.37;38.52;101449.50;4946866;27;98096;-67
2023/05/20 07:11:46;;;;;;;;;;;;;;;15.32;38.30;101444.06;4964269;27;98806;-68
2023/05/20 07:14:12;;;;;;;;;;;;;;;15.35;38.45;101444.31;4971635;27;97965;-64
2023/05/20 07:16:39;;;;;;;;;;;;;;;15.42;38.54;101433.19;4937447;27;99414;-64
2023/05/20 07:19:05;;;;;;;;;;;;;;;15.51;38.40;101444.28;4926327;28;98479;-64
2023/05/20 07:21:31;;;;;;;;;;;;;;;15.58;38.16;101433.94;4941206;27;98254;-68
2023/05/20 07:23:57;;;;;;;;;;;;;;;15.63;38.19;101440.16;4957512;27;98611;-64
2023/05/20 07:26:23;;;;;;;;;;;;;;;15.71;38.04;101436.91;4956690;27;98191;-68
2023/05/20 07:28:50;;;;;;;;;;;;;;;15.77;38.33;101432.28;4959388;27;100417;-66
2023/05/20 07:31:16;;;;;;;;;;;;;;;15.78;37.91;101435.78;4930349;28;99946;-64
2023/05/20 07:33:42;;;;;;;;;;;;;;;15.84;38.18;101429.25;4941907;27;98801;-64
2023/05/20 07:36:08;;;;;;;;;;;;;;;15.94;37.94;101429.19;4957946;28;99156;-64
2023/05/20 07:38:36;;;;;;;;;;;;;;;16.05;38.00;101438.13;4939598;27;98144;-65
2023/05/20 07:41:02;;;;;;;;;;;;;;;16.07;37.76;101427.75;4958664;27;99790;-67
2023/05/20 07:43:28;;;;;;;;;;;;;;;16.11;37.74;101432.38;4943202;28;98738;-69
2023/05/20 07:45:55;;;;;;;;;;;;;;;16.19;37.81;101436.38;4938619;27;98052;-68
2023/05/20 07:48:21;;;;;;;;;;;;;;;16.27;38.00;101427.66;4924610;28;98185;-67
2023/05/20 07:50:47;;;;;;;;;;;;;;;16.32;37.88;101432.25;4958830;27;98242;-67
2023/05/20 07:53:14;;;;;;;;;;;;;;;16.32;37.92;101435.78;4927677;27;98990;-71
2023/05/20 07:55:40;;;;;;;;;;;;;;;16.44;37.69;101436.22;4957015;27;99240;-70
2023/05/20 07:58:07;;;;;;;;;;;;;;;16.51;37.66;101438.63;4941269;27;98138;-66
2023/05/20 08:00:33;;;;;;;;;;;;;;;16.51;37.73;101443.28;4953190;27;100517;-70
2023/05/20 08:02:59;;;;;;;;;;;;;;;16.54;37.85;101435.31;4958876;27;99526;-66
2023/05/20 08:05:26;;;;;;;;;;;;;;;16.63;37.90;101441.81;4922306;27;102467;-66
2023/05/20 08:07:52;;;;;;;;;;;;;;;16.68;37.78;101430.88;4937419;27;98324;-71
2023/05/20 08:10:18;;;;;;;;;;;;;;;16.73;37.79;101432.75;4940403;27;99574;-66
2023/05/20 08:12:45;;;;;;;;;;;;;;;16.79;37.83;101423.47;4948056;27;98592;-65
2023/05/20 08:15:11;;;;;;;;;;;;;;;16.95;37.58;101431.50;4936122;27;98218;-65
2023/05/20 08:17:38;;;;;;;;;;;;;;;17.20;37.52;101428.50;4924745;27;98370;-70
2023/05/20 08:20:06;;;;;;;;;;;;;;;17.33;37.38;101419.66;4958857;27;99056;-70
2023/05/20 08:22:34;;;;;;;;;;;;;;;17.70;37.10;101422.78;4948815;27;98500;-64
2023/05/20 08:25:00;;;;;;;;;;;;;;;18.11;36.69;101421.13;4926812;27;98186;-71
2023/05/20 08:27:27;;;;;;;;;;;;;;;18.42;36.68;101407.03;4942489;27;98029;-65
2023/05/20 08:29:53;;;;;;;;;;;;;;;18.49;36.67;101406.66;4943071;27;98514;-71
2023/05/20 08:32:19;;;;;;;;;;;;;;;18.83;36.42;101396.28;4962051;27;99266;-65
2023/05/20 08:34:47;;;;;;;;;;;;;;;19.09;36.50;101398.53;4945248;27;101819;-70
2023/05/20 08:37:14;;;;;;;;;;;;;;;19.02;36.73;101398.09;4913882;28;104241;-65
2023/05/20 08:39:40;;;;;;;;;;;;;;;19.16;36.42;101396.22;4936864;28;98088;-71
2023/05/20 08:42:08;;;;;;;;;;;;;;;19.28;36.61;101391.03;4955826;28;99414;-72
2023/05/20 08:44:34;;;;;;;;;;;;;;;19.37;36.31;101394.72;4940100;28;98609;-71
2023/05/20 08:47:02;;;;;;;;;;;;;;;19.30;36.52;101397.03;4943505;27;97935;-72
2023/05/20 08:49:29;;;;;;;;;;;;;;;19.24;36.78;101395.50;4945414;27;98611;-71
2023/05/20 08:51:55;;;;;;;;;;;;;;;19.27;36.89;101397.63;4940855;27;98102;-71
2023/05/20 08:54:22;;;;;;;;;;;;;;;19.12;37.03;101403.38;4944843;27;97939;-64
2023/05/20 08:56:48;;;;;;;;;;;;;;;19.11;37.07;101396.31;4943873;28;98174;-71
2023/05/20 08:59:15;;;;;;;;;;;;;;;19.24;37.19;101400.16;4930878;27;98270;-71
2023/05/20 09:01:42;;;;;;;;;;;;;;;19.23;37.03;101404.00;4947491;27;99763;-64
2023/05/20 09:04:08;;;;;;;;;;;;;;;19.36;36.81;101393.06;4923971;28;98279;-70
2023/05/20 09:06:49;;;;;;;;;;;;;;;19.26;36.96;101390.56;4940940;27;98245;-64
2023/05/20 09:09:15;;;;;;;;;;;;;;;19.45;36.91;101390.44;4958822;27;98056;-70
2023/05/20 09:11:42;;;;;;;;;;;;;;;19.40;36.99;101379.59;4944775;27;97919;-64
2023/05/20 09:14:08;;;;;;;;;;;;;;;19.42;37.04;101393.78;4945977;27;99283;-65
2023/05/20 09:16:34;;;;;;;;;;;;;;;19.37;37.05;101389.25;4940570;27;98684;-71
2023/05/20 09:19:01;;;;;;;;;;;;;;;19.41;37.06;101394.06;4944293;27;98154;-70
2023/05/20 09:21:30;;;;;;;;;;;;;;;19.48;36.93;101389.81;4942910;27;98117;-64
2023/05/20 09:23:57;;;;;;;;;;;;;;;19.66;36.85;101396.34;4958841;27;100493;-64
2023/05/20 09:26:29;;;;;;;;;;;;;;;19.84;36.65;101389.91;4945843;27;97959;-64
2023/05/20 09:28:56;;;;;;;;;;;;;;;19.97;36.50;101382.78;4945869;27;98134;-64
2023/05/20 09:31:35;;;;;;;;;;;;;;;20.14;36.63;101382.13;4945049;28;98089;-71
2023/05/20 09:34:01;;;;;;;;;;;;;;;19.95;36.72;101389.69;4946988;27;98895;-64
2023/05/20 09:36:30;;;;;;;;;;;;;;;19.88;36.86;101389.28;4943499;27;98910;-64
2023/05/20 09:39:04;;;;;;;;;;;;;;;19.89;36.87;101390.94;4960050;28;100343;-64
2023/05/20 09:41:54;;;;;;;;;;;;;;;19.93;36.86;101390.00;4957683;27;98322;-64
2023/05/20 09:44:21;;;;;;;;;;;;;;;20.09;36.77;101376.78;4961167;27;98493;-64
2023/05/20 09:46:48;;;;;;;;;;;;;;;20.76;36.07;101378.72;4943136;27;98334;-64
2023/05/20 09:49:15;;;;;;;;;;;;;;;20.76;36.17;101387.75;4931026;27;98348;-64
2023/05/20 09:51:41;;;;;;;;;;;;;;;20.68;36.41;101384.97;4959697;27;98105;-71
2023/05/20 09:54:07;;;;;;;;;;;;;;;21.29;35.89;101375.06;4938812;27;98405;-71
2023/05/20 09:56:34;;;;;;;;;;;;;;;21.04;36.33;101382.06;4941562;27;97979;-64
2023/05/20 09:59:01;;;;;;;;;;;;;;;21.13;36.41;101379.38;4958185;28;98629;-71
2023/05/20 10:01:28;;;;;;;;;;;;;;;21.35;36.17;101368.34;4928095;28;107970;-71
2023/05/20 10:03:54;;;;;;;;;;;;;;;21.88;35.81;101363.75;4944019;27;99645;-64
2023/05/20 10:06:34;;;;;;;;;;;;;;;23.01;34.73;101359.72;4943537;28;98297;-71
2023/05/20 10:09:17;;;;;;;;;;;;;;;23.33;34.76;101346.47;4955898;27;100506;-64
2023/05/20 10:12:44;;;;;;;;;;;;;;;25.89;32.28;101341.94;4942500;27;99264;-64
2023/05/20 10:15:24;;;;;;;;;;;;;;;26.39;32.60;101344.13;4933833;28;98285;-64
2023/05/20 10:18:05;;;;;;;;;;;;;;;27.58;31.91;101343.13;4915252;28;98172;-71
2023/05/20 10:20:31;;;;;;;;;;;;;;;29.48;30.36;101336.31;4950425;27;98256;-64
2023/05/20 10:22:57;;;;;;;;;;;;;;;30.73;30.28;101343.38;4928499;27;109563;-71
2023/05/20 10:25:27;;;;;;;;;;;;;;;28.16;33.11;101342.38;4945523;27;98201;-71
2023/05/20 10:28:06;;;;;;;;;;;;;;;27.80;33.35;101344.44;4944133;27;98626;-64
2023/05/20 10:30:32;;;;;;;;;;;;;;;28.70;32.61;101340.63;4942227;27;98367;-65
2023/05/20 10:33:04;;;;;;;;;;;;;;;30.55;31.13;101331.25;4953076;28;98205;-64
2023/05/20 10:35:30;;;;;;;;;;;;;;;31.36;30.45;101324.78;4975095;27;98160;-71
2023/05/20 10:38:16;;;;;;;;;;;;;;;31.03;31.38;101334.06;4935840;27;99187;-64
2023/05/20 10:40:42;;;;;;;;;;;;;;;32.28;30.42;101322.75;4943820;27;103268;-70
2023/05/20 10:43:10;;;;;;;;;;;;;;;33.21;30.14;101329.16;4926632;27;104986;-64
2023/05/20 10:45:46;;;;;;;;;;;;;;;33.42;30.35;101312.34;4947668;27;98336;-71
2023/05/20 10:48:20;;;;;;;;;;;;;;;33.99;30.00;101311.34;4946666;27;98002;-70
2023/05/20 10:50:46;;;;;;;;;;;;;;;34.57;29.82;101304.19;4974431;27;98383;-64
2023/05/20 10:53:12;;;;;;;;;;;;;;;34.83;30.20;101310.38;4937100;27;99165;-64
2023/05/20 10:55:39;;;;;;;;;;;;;;;34.91;30.21;101297.88;4944011;27;98143;-72
2023/05/20 10:58:06;;;;;;;;;;;;;;;35.00;30.47;101294.63;4919069;28;98284;-71
2023/05/20 11:00:35;;;;;;;;;;;;;;;34.98;30.64;101292.22;4924746;28;98122;-64
2023/05/20 11:03:03;;;;;;;;;;;;;;;35.04;30.63;101300.97;4939451;27;99419;-71
2023/05/20 11:05:30;;;;;;;;;;;;;;;35.17;30.65;101288.03;4942457;27;98250;-65
2023/05/20 11:08:02;;;;;;;;;;;;;;;35.47;30.63;101281.69;4955708;27;97997;-64
2023/05/20 11:10:28;;;;;;;;;;;;;;;35.54;30.34;101276.00;4974409;27;98816;-71
2023/05/20 11:12:56;;;;;;;;;;;;;;;35.54;30.60;101281.63;4936838;27;98203;-64
2023/05/20 11:15:25;;;;;;;;;;;;;;;35.54;30.67;101292.84;4946210;27;98456;-72
2023/05/20 11:17:54;;;;;;;;;;;;;;;35.58;30.69;101279.56;4937091;27;98450;-70
2023/05/20 11:20:25;;;;;;;;;;;;;;;35.51;30.87;101276.06;4925586;28;99139;-70
2023/05/20 11:22:52;;;;;;;;;;;;;;;35.48;30.91;101274.84;4974086;27;99667;-70
2023/05/20 11:25:18;;;;;;;;;;;;;;;35.28;31.31;101259.91;4971850;27;98267;-64
2023/05/20 11:27:45;;;;;;;;;;;;;;;35.13;31.10;101265.66;4941715;27;97868;-64
2023/05/20 11:30:17;;;;;;;;;;;;;;;34.90;31.59;101266.31;4939451;28;98062;-64
2023/05/20 11:32:44;;;;;;;;;;;;;;;34.72;31.77;101264.88;4926054;27;99505;-72
2023/05/20 11:35:24;;;;;;;;;;;;;;;34.41;32.37;101253.53;4942621;27;97954;-71
2023/05/20 11:38:05;;;;;;;;;;;;;;;34.26;31.96;101235.25;4954918;27;98092;-65
2023/05/20 11:40:31;;;;;;;;;;;;;;;34.07;32.36;101233.81;4944990;27;99842;-71
2023/05/20 11:42:58;;;;;;;;;;;;;;;34.01;32.57;101243.84;4955588;27;98704;-65
2023/05/20 11:45:26;;;;;;;;;;;;;;;34.00;32.38;101240.25;4957834;27;98533;-66
2023/05/20 11:48:05;;;;;;;;;;;;;;;34.18;31.95;101231.72;4943411;27;98075;-65
2023/05/20 11:50:44;;;;;;;;;;;;;;;34.44;31.91;101219.13;4937464;27;98239;-71
2023/05/20 11:53:15;;;;;;;;;;;;;;;34.43;31.98;101229.53;4956712;27;98191;-71
2023/05/20 11:55:55;;;;;;;;;;;;;;;34.50;31.72;101227.91;4964442;27;98259;-70
2023/05/20 11:58:25;;;;;;;;;;;;;;;34.68;31.16;101223.72;4945473;27;98237;-69
2023/05/20 12:00:51;;;;;;;;;;;;;;;34.72;31.09;101225.69;4941659;27;98337;-69
2023/05/20 12:03:18;;;;;;;;;;;;;;;34.79;31.24;101222.84;4944626;27;98405;-70
2023/05/20 12:05:46;;;;;;;;;;;;;;;34.60;31.57;101215.81;4941255;27;99641;-60
2023/05/20 12:08:12;;;;;;;;;;;;;;;34.47;31.40;101217.50;4944256;28;98246;-70
2023/05/20 12:10:38;;;;;;;;;;;;;;;34.31;31.96;101213.25;4944035;27;102345;-67
2023/05/20 12:13:07;;;;;;;;;;;;;;;34.30;31.85;101205.25;4938061;27;98107;-64
2023/05/20 12:15:37;;;;;;;;;;;;;;;34.03;32.13;101205.06;4938356;27;100713;-61
2023/05/20 12:18:03;;;;;;;;;;;;;;;33.74;32.04;101198.88;4941734;27;98196;-62
2023/05/20 12:20:30;;;;;;;;;;;;;;;33.44;32.78;101186.22;4944260;27;98061;-69
2023/05/20 12:22:56;;;;;;;;;;;;;;;33.21;32.38;101187.56;4941521;27;98386;-69
2023/05/20 12:25:23;;;;;;;;;;;;;;;33.05;32.60;101189.19;4942411;27;99564;-63
2023/05/20 12:27:51;;;;;;;;;;;;;;;32.90;33.17;101194.81;4955574;27;98488;-62
2023/05/20 12:30:19;;;;;;;;;;;;;;;32.88;32.85;101185.25;4942982;27;98195;-71
2023/05/20 12:32:45;;;;;;;;;;;;;;;32.88;32.96;101171.28;4923197;27;98066;-63
2023/05/20 12:35:12;;;;;;;;;;;;;;;32.85;33.49;101166.50;4953187;27;99541;-61
2023/05/20 12:37:38;;;;;;;;;;;;;;;32.80;33.04;101166.94;4938385;27;98109;-69